sensor_id;sensor_type;location;lat;lon;timestamp;P1;durP1;ratioP1;P2;durP2;ratioP2
17741;SDS011;8993;51.822;-2.268;2023-05-10T00:03:21;15.03;;;6.81;;
17741;SDS011;8993;51.822;-2.268;2023-05-10T00:08:26;15.34;;;6.51;;
17741;SDS011;8993;51.822;-2.268;2023-05-10T00:13:30;16.66;;;6.59;;
17741;SDS011;8993;51.822;-2.268;2023-05-10T00:18:37;12.92;;;6.00;;
17741;SDS011;8993;51.822;-2.268;2023-05-10T00:23:43;9.35;;;5.04;;
17741;SDS011;8993;51.822;-2.268;2023-05-10T00:28:47;15.55;;;5.15;;
17741;SDS011;8993;51.822;-2.268;2023-05-10T00:33:54;11.62;;;4.73;;
17741;SDS011;8993;51.822;-2.268;2023-05-10T00:39:00;11.35;;;4.49;;
17741;SDS011;8993;51.822;-2.268;2023-05-10T00:44:05;9.96;;;4.19;;
17741;SDS011;8993;51.822;-2.268;2023-05-10T00:49:11;8.79;;;3.57;;
17741;SDS011;8993;51.822;-2.268;2023-05-10T00:54:16;9.74;;;3.42;;
17741;SDS011;8993;51.822;-2.268;2023-05-10T00:59:20;13.66;;;3.67;;
17741;SDS011;8993;51.822;-2.268;2023-05-10T01:04:27;13.39;;;4.22;;
17741;SDS011;8993;51.822;-2.268;2023-05-10T01:09:32;11.68;;;3.78;;
17741;SDS011;8993;51.822;-2.268;2023-05-10T01:14:36;18.89;;;5.32;;
17741;SDS011;8993;51.822;-2.268;2023-05-10T01:19:40;24.25;;;6.30;;
17741;SDS011;8993;51.822;-2.268;2023-05-10T01:24:58;23.69;;;5.64;;
17741;SDS011;8993;51.822;-2.268;2023-05-10T01:30:05;14.74;;;4.11;;
17741;SDS011;8993;51.822;-2.268;2023-05-10T01:34:54;12.67;;;3.95;;
17741;SDS011;8993;51.822;-2.268;2023-05-10T01:39:59;9.48;;;2.96;;
17741;SDS011;8993;51.822;-2.268;2023-05-10T01:45:07;8.61;;;2.81;;
17741;SDS011;8993;51.822;-2.268;2023-05-10T01:50:09;7.48;;;2.73;;
17741;SDS011;8993;51.822;-2.268;2023-05-10T01:55:13;11.16;;;3.67;;
17741;SDS011;8993;51.822;-2.268;2023-05-10T02:00:18;22.54;;;5.19;;
17741;SDS011;8993;51.822;-2.268;2023-05-10T02:05:23;16.27;;;4.02;;
17741;SDS011;8993;51.822;-2.268;2023-05-10T02:10:27;11.17;;;3.27;;
17741;SDS011;8993;51.822;-2.268;2023-05-10T02:15:31;10.89;;;3.48;;
17741;SDS011;8993;51.822;-2.268;2023-05-10T02:20:36;15.49;;;3.75;;
17741;SDS011;8993;51.822;-2.268;2023-05-10T02:25:41;27.67;;;6.42;;
17741;SDS011;8993;51.822;-2.268;2023-05-10T02:30:45;34.79;;;8.01;;
17741;SDS011;8993;51.822;-2.268;2023-05-10T02:35:49;41.90;;;9.97;;
17741;SDS011;8993;51.822;-2.268;2023-05-10T02:40:53;37.39;;;8.69;;
17741;SDS011;8993;51.822;-2.268;2023-05-10T02:45:58;22.57;;;6.84;;
17741;SDS011;8993;51.822;-2.268;2023-05-10T02:51:04;35.13;;;7.92;;
17741;SDS011;8993;51.822;-2.268;2023-05-10T02:56:08;36.37;;;8.13;;
17741;SDS011;8993;51.822;-2.268;2023-05-10T03:01:10;24.61;;;6.49;;
17741;SDS011;8993;51.822;-2.268;2023-05-10T03:06:15;17.43;;;4.91;;
17741;SDS011;8993;51.822;-2.268;2023-05-10T03:11:23;19.48;;;4.91;;
17741;SDS011;8993;51.822;-2.268;2023-05-10T03:16:24;16.93;;;4.55;;
17741;SDS011;8993;51.822;-2.268;2023-05-10T03:21:28;17.64;;;4.90;;
17741;SDS011;8993;51.822;-2.268;2023-05-10T03:26:32;16.54;;;5.00;;
17741;SDS011;8993;51.822;-2.268;2023-05-10T03:31:36;50.01;;;11.52;;
17741;SDS011;8993;51.822;-2.268;2023-05-10T03:36:42;71.57;;;17.30;;
17741;SDS011;8993;51.822;-2.268;2023-05-10T03:41:49;86.11;;;19.46;;
17741;SDS011;8993;51.822;-2.268;2023-05-10T03:46:54;65.47;;;17.16;;
17741;SDS011;8993;51.822;-2.268;2023-05-10T03:51:58;65.11;;;18.16;;
17741;SDS011;8993;51.822;-2.268;2023-05-10T03:57:03;60.10;;;16.61;;
17741;SDS011;8993;51.822;-2.268;2023-05-10T04:02:07;51.59;;;17.93;;
17741;SDS011;8993;51.822;-2.268;2023-05-10T04:07:12;57.47;;;18.71;;
17741;SDS011;8993;51.822;-2.268;2023-05-10T04:12:18;52.84;;;18.18;;
17741;SDS011;8993;51.822;-2.268;2023-05-10T04:17:23;64.61;;;20.86;;
17741;SDS011;8993;51.822;-2.268;2023-05-10T04:22:35;69.53;;;20.70;;
17741;SDS011;8993;51.822;-2.268;2023-05-10T04:27:36;60.25;;;19.58;;
17741;SDS011;8993;51.822;-2.268;2023-05-10T04:32:43;66.10;;;21.82;;
17741;SDS011;8993;51.822;-2.268;2023-05-10T04:37:48;72.02;;;24.64;;
17741;SDS011;8993;51.822;-2.268;2023-05-10T04:42:53;77.19;;;25.85;;
17741;SDS011;8993;51.822;-2.268;2023-05-10T04:47:57;70.23;;;25.26;;
17741;SDS011;8993;51.822;-2.268;2023-05-10T04:53:02;80.61;;;27.24;;
17741;SDS011;8993;51.822;-2.268;2023-05-10T04:58:09;71.66;;;25.86;;
17741;SDS011;8993;51.822;-2.268;2023-05-10T05:03:13;73.29;;;26.18;;
17741;SDS011;8993;51.822;-2.268;2023-05-10T05:08:17;86.31;;;28.88;;
17741;SDS011;8993;51.822;-2.268;2023-05-10T05:13:21;76.09;;;26.91;;
17741;SDS011;8993;51.822;-2.268;2023-05-10T05:18:27;64.46;;;24.33;;
17741;SDS011;8993;51.822;-2.268;2023-05-10T05:23:31;66.30;;;24.74;;
17741;SDS011;8993;51.822;-2.268;2023-05-10T05:28:35;72.65;;;26.37;;
17741;SDS011;8993;51.822;-2.268;2023-05-10T05:33:39;73.36;;;24.56;;
17741;SDS011;8993;51.822;-2.268;2023-05-10T05:38:43;75.91;;;26.06;;
17741;SDS011;8993;51.822;-2.268;2023-05-10T05:43:49;82.03;;;26.55;;
17741;SDS011;8993;51.822;-2.268;2023-05-10T05:48:53;69.33;;;23.91;;
17741;SDS011;8993;51.822;-2.268;2023-05-10T05:54:00;57.87;;;21.26;;
17741;SDS011;8993;51.822;-2.268;2023-05-10T05:59:05;62.67;;;21.87;;
17741;SDS011;8993;51.822;-2.268;2023-05-10T06:04:12;53.29;;;18.94;;
17741;SDS011;8993;51.822;-2.268;2023-05-10T06:09:16;39.71;;;15.67;;
17741;SDS011;8993;51.822;-2.268;2023-05-10T06:14:20;47.02;;;15.81;;
17741;SDS011;8993;51.822;-2.268;2023-05-10T06:19:24;36.25;;;13.91;;
17741;SDS011;8993;51.822;-2.268;2023-05-10T06:24:29;36.22;;;12.86;;
17741;SDS011;8993;51.822;-2.268;2023-05-10T06:29:33;34.05;;;12.69;;
17741;SDS011;8993;51.822;-2.268;2023-05-10T06:34:37;32.53;;;12.22;;
17741;SDS011;8993;51.822;-2.268;2023-05-10T06:39:41;31.50;;;12.03;;
17741;SDS011;8993;51.822;-2.268;2023-05-10T06:44:45;36.14;;;13.11;;
17741;SDS011;8993;51.822;-2.268;2023-05-10T06:49:49;37.59;;;13.09;;
17741;SDS011;8993;51.822;-2.268;2023-05-10T06:54:53;33.05;;;12.47;;
17741;SDS011;8993;51.822;-2.268;2023-05-10T06:59:57;31.78;;;11.07;;
17741;SDS011;8993;51.822;-2.268;2023-05-10T07:05:01;32.36;;;11.81;;
17741;SDS011;8993;51.822;-2.268;2023-05-10T07:10:06;33.06;;;11.45;;
17741;SDS011;8993;51.822;-2.268;2023-05-10T07:15:12;26.22;;;9.50;;
17741;SDS011;8993;51.822;-2.268;2023-05-10T07:20:16;18.97;;;7.04;;
17741;SDS011;8993;51.822;-2.268;2023-05-10T07:25:20;19.74;;;5.76;;
17741;SDS011;8993;51.822;-2.268;2023-05-10T07:30:25;19.34;;;4.22;;
17741;SDS011;8993;51.822;-2.268;2023-05-10T07:35:31;18.06;;;5.72;;
17741;SDS011;8993;51.822;-2.268;2023-05-10T07:40:35;17.27;;;4.21;;
17741;SDS011;8993;51.822;-2.268;2023-05-10T07:45:39;15.32;;;4.05;;
17741;SDS011;8993;51.822;-2.268;2023-05-10T07:50:43;13.03;;;3.56;;
17741;SDS011;8993;51.822;-2.268;2023-05-10T07:55:50;16.03;;;2.80;;
17741;SDS011;8993;51.822;-2.268;2023-05-10T08:00:52;12.41;;;2.51;;
17741;SDS011;8993;51.822;-2.268;2023-05-10T08:05:57;14.27;;;2.84;;
17741;SDS011;8993;51.822;-2.268;2023-05-10T08:11:04;12.37;;;2.45;;
17741;SDS011;8993;51.822;-2.268;2023-05-10T08:16:11;12.07;;;2.26;;
17741;SDS011;8993;51.822;-2.268;2023-05-10T08:21:15;13.90;;;2.20;;
17741;SDS011;8993;51.822;-2.268;2023-05-10T08:26:20;12.41;;;2.36;;
17741;SDS011;8993;51.822;-2.268;2023-05-10T08:31:28;13.03;;;2.05;;
17741;SDS011;8993;51.822;-2.268;2023-05-10T08:36:42;14.29;;;2.40;;
17741;SDS011;8993;51.822;-2.268;2023-05-10T08:41:51;16.10;;;2.37;;
17741;SDS011;8993;51.822;-2.268;2023-05-10T08:46:48;14.04;;;2.30;;
17741;SDS011;8993;51.822;-2.268;2023-05-10T08:51:54;11.30;;;1.97;;
17741;SDS011;8993;51.822;-2.268;2023-05-10T08:56:58;12.57;;;2.01;;
17741;SDS011;8993;51.822;-2.268;2023-05-10T09:02:05;9.24;;;1.73;;
17741;SDS011;8993;51.822;-2.268;2023-05-10T09:07:12;8.01;;;1.42;;
17741;SDS011;8993;51.822;-2.268;2023-05-10T09:12:16;11.06;;;1.66;;
17741;SDS011;8993;51.822;-2.268;2023-05-10T09:17:21;8.26;;;1.42;;
17741;SDS011;8993;51.822;-2.268;2023-05-10T09:22:26;6.96;;;1.27;;
17741;SDS011;8993;51.822;-2.268;2023-05-10T09:27:30;8.73;;;1.34;;
17741;SDS011;8993;51.822;-2.268;2023-05-10T09:32:37;7.49;;;1.38;;
17741;SDS011;8993;51.822;-2.268;2023-05-10T09:37:44;7.71;;;1.23;;
17741;SDS011;8993;51.822;-2.268;2023-05-10T09:42:52;7.97;;;1.44;;
17741;SDS011;8993;51.822;-2.268;2023-05-10T09:47:53;6.31;;;0.99;;
17741;SDS011;8993;51.822;-2.268;2023-05-10T09:52:58;8.08;;;1.19;;
17741;SDS011;8993;51.822;-2.268;2023-05-10T09:58:01;5.24;;;0.99;;
17741;SDS011;8993;51.822;-2.268;2023-05-10T10:03:12;6.80;;;1.16;;
17741;SDS011;8993;51.822;-2.268;2023-05-10T10:08:13;9.23;;;1.32;;
17741;SDS011;8993;51.822;-2.268;2023-05-10T10:13:20;7.24;;;1.16;;
17741;SDS011;8993;51.822;-2.268;2023-05-10T10:18:25;7.27;;;1.13;;
17741;SDS011;8993;51.822;-2.268;2023-05-10T10:23:29;8.71;;;1.18;;
17741;SDS011;8993;51.822;-2.268;2023-05-10T10:28:35;8.16;;;1.25;;
17741;SDS011;8993;51.822;-2.268;2023-05-10T10:33:47;7.84;;;1.39;;
17741;SDS011;8993;51.822;-2.268;2023-05-10T10:43:59;10.75;;;1.86;;
17741;SDS011;8993;51.822;-2.268;2023-05-10T10:49:08;10.11;;;1.81;;
17741;SDS011;8993;51.822;-2.268;2023-05-10T10:54:08;10.10;;;1.91;;
17741;SDS011;8993;51.822;-2.268;2023-05-10T10:59:04;12.65;;;2.25;;
17741;SDS011;8993;51.822;-2.268;2023-05-10T11:09:15;15.19;;;2.77;;
17741;SDS011;8993;51.822;-2.268;2023-05-10T11:14:20;14.98;;;3.02;;
17741;SDS011;8993;51.822;-2.268;2023-05-10T11:19:24;12.92;;;2.13;;
17741;SDS011;8993;51.822;-2.268;2023-05-10T11:24:29;14.30;;;2.42;;
17741;SDS011;8993;51.822;-2.268;2023-05-10T11:29:34;16.44;;;2.99;;
17741;SDS011;8993;51.822;-2.268;2023-05-10T11:34:39;16.63;;;2.84;;
17741;SDS011;8993;51.822;-2.268;2023-05-10T11:39:45;14.58;;;2.57;;
17741;SDS011;8993;51.822;-2.268;2023-05-10T11:44:48;12.86;;;2.64;;
17741;SDS011;8993;51.822;-2.268;2023-05-10T11:49:53;16.78;;;2.87;;
17741;SDS011;8993;51.822;-2.268;2023-05-10T11:54:57;16.85;;;2.93;;
17741;SDS011;8993;51.822;-2.268;2023-05-10T12:00:02;12.82;;;2.46;;
17741;SDS011;8993;51.822;-2.268;2023-05-10T12:05:06;15.14;;;2.45;;
17741;SDS011;8993;51.822;-2.268;2023-05-10T12:10:10;12.93;;;2.12;;
17741;SDS011;8993;51.822;-2.268;2023-05-10T12:15:18;9.84;;;1.96;;
17741;SDS011;8993;51.822;-2.268;2023-05-10T12:20:26;8.43;;;1.57;;
17741;SDS011;8993;51.822;-2.268;2023-05-10T12:25:31;11.92;;;2.09;;
17741;SDS011;8993;51.822;-2.268;2023-05-10T12:30:35;11.47;;;1.84;;
17741;SDS011;8993;51.822;-2.268;2023-05-10T12:35:44;9.10;;;1.74;;
17741;SDS011;8993;51.822;-2.268;2023-05-10T12:40:46;9.08;;;1.95;;
17741;SDS011;8993;51.822;-2.268;2023-05-10T12:45:50;6.86;;;1.22;;
17741;SDS011;8993;51.822;-2.268;2023-05-10T12:50:56;6.37;;;1.08;;
17741;SDS011;8993;51.822;-2.268;2023-05-10T12:56:01;6.79;;;1.36;;
17741;SDS011;8993;51.822;-2.268;2023-05-10T13:01:05;14.95;;;2.53;;
17741;SDS011;8993;51.822;-2.268;2023-05-10T13:06:10;10.87;;;1.77;;
17741;SDS011;8993;51.822;-2.268;2023-05-10T13:11:14;10.44;;;1.89;;
17741;SDS011;8993;51.822;-2.268;2023-05-10T13:16:18;16.19;;;2.36;;
17741;SDS011;8993;51.822;-2.268;2023-05-10T13:21:23;21.22;;;2.63;;
17741;SDS011;8993;51.822;-2.268;2023-05-10T13:26:27;20.12;;;2.39;;
17741;SDS011;8993;51.822;-2.268;2023-05-10T13:31:31;16.46;;;2.35;;
17741;SDS011;8993;51.822;-2.268;2023-05-10T13:36:36;7.39;;;0.86;;
17741;SDS011;8993;51.822;-2.268;2023-05-10T13:41:40;5.53;;;0.73;;
17741;SDS011;8993;51.822;-2.268;2023-05-10T13:46:45;3.70;;;0.66;;
17741;SDS011;8993;51.822;-2.268;2023-05-10T13:51:49;3.76;;;0.58;;
17741;SDS011;8993;51.822;-2.268;2023-05-10T13:56:53;1.90;;;0.55;;
17741;SDS011;8993;51.822;-2.268;2023-05-10T14:01:58;2.83;;;0.58;;
17741;SDS011;8993;51.822;-2.268;2023-05-10T14:07:03;2.97;;;0.60;;
17741;SDS011;8993;51.822;-2.268;2023-05-10T14:12:08;3.25;;;0.61;;
17741;SDS011;8993;51.822;-2.268;2023-05-10T14:17:12;4.36;;;0.94;;
17741;SDS011;8993;51.822;-2.268;2023-05-10T14:22:16;9.26;;;2.08;;
17741;SDS011;8993;51.822;-2.268;2023-05-10T14:27:21;15.82;;;2.86;;
17741;SDS011;8993;51.822;-2.268;2023-05-10T14:32:25;12.14;;;2.21;;
17741;SDS011;8993;51.822;-2.268;2023-05-10T14:37:33;9.51;;;1.86;;
17741;SDS011;8993;51.822;-2.268;2023-05-10T14:42:40;11.68;;;2.12;;
17741;SDS011;8993;51.822;-2.268;2023-05-10T14:47:44;12.30;;;1.90;;
17741;SDS011;8993;51.822;-2.268;2023-05-10T14:52:49;12.33;;;2.05;;
17741;SDS011;8993;51.822;-2.268;2023-05-10T14:57:53;9.09;;;1.52;;
17741;SDS011;8993;51.822;-2.268;2023-05-10T15:02:57;6.01;;;1.35;;
17741;SDS011;8993;51.822;-2.268;2023-05-10T15:08:05;5.86;;;1.29;;
17741;SDS011;8993;51.822;-2.268;2023-05-10T15:13:09;5.51;;;1.36;;
17741;SDS011;8993;51.822;-2.268;2023-05-10T15:18:14;7.86;;;1.48;;
17741;SDS011;8993;51.822;-2.268;2023-05-10T15:23:18;8.09;;;1.55;;
17741;SDS011;8993;51.822;-2.268;2023-05-10T15:28:23;7.69;;;1.35;;
17741;SDS011;8993;51.822;-2.268;2023-05-10T15:33:27;7.70;;;1.53;;
17741;SDS011;8993;51.822;-2.268;2023-05-10T15:38:31;8.36;;;1.56;;
17741;SDS011;8993;51.822;-2.268;2023-05-10T15:43:36;6.42;;;1.26;;
17741;SDS011;8993;51.822;-2.268;2023-05-10T15:48:41;7.42;;;1.19;;
17741;SDS011;8993;51.822;-2.268;2023-05-10T15:53:47;7.94;;;1.08;;
17741;SDS011;8993;51.822;-2.268;2023-05-10T15:58:57;8.03;;;1.19;;
17741;SDS011;8993;51.822;-2.268;2023-05-10T16:03:56;9.16;;;1.65;;
17741;SDS011;8993;51.822;-2.268;2023-05-10T16:09:03;5.18;;;0.95;;
17741;SDS011;8993;51.822;-2.268;2023-05-10T16:14:08;5.72;;;1.03;;
17741;SDS011;8993;51.822;-2.268;2023-05-10T16:19:12;5.19;;;1.06;;
17741;SDS011;8993;51.822;-2.268;2023-05-10T16:24:17;6.71;;;1.13;;
17741;SDS011;8993;51.822;-2.268;2023-05-10T16:29:22;6.79;;;1.14;;
17741;SDS011;8993;51.822;-2.268;2023-05-10T16:34:26;4.22;;;1.03;;
17741;SDS011;8993;51.822;-2.268;2023-05-10T16:39:31;3.18;;;0.50;;
17741;SDS011;8993;51.822;-2.268;2023-05-10T16:44:36;4.03;;;0.60;;
17741;SDS011;8993;51.822;-2.268;2023-05-10T16:49:41;2.52;;;0.51;;
17741;SDS011;8993;51.822;-2.268;2023-05-10T16:54:47;4.54;;;0.72;;
17741;SDS011;8993;51.822;-2.268;2023-05-10T16:59:54;4.38;;;0.66;;
17741;SDS011;8993;51.822;-2.268;2023-05-10T17:05:00;5.97;;;0.68;;
17741;SDS011;8993;51.822;-2.268;2023-05-10T17:10:05;3.41;;;0.80;;
17741;SDS011;8993;51.822;-2.268;2023-05-10T17:15:10;4.14;;;0.79;;
17741;SDS011;8993;51.822;-2.268;2023-05-10T17:20:14;4.44;;;0.66;;
17741;SDS011;8993;51.822;-2.268;2023-05-10T17:25:19;5.29;;;0.74;;
17741;SDS011;8993;51.822;-2.268;2023-05-10T17:30:23;4.51;;;0.77;;
17741;SDS011;8993;51.822;-2.268;2023-05-10T17:35:28;4.38;;;0.78;;
17741;SDS011;8993;51.822;-2.268;2023-05-10T17:40:32;5.20;;;0.75;;
17741;SDS011;8993;51.822;-2.268;2023-05-10T17:45:37;6.06;;;0.79;;
17741;SDS011;8993;51.822;-2.268;2023-05-10T17:50:41;4.34;;;0.90;;
17741;SDS011;8993;51.822;-2.268;2023-05-10T17:55:46;4.94;;;0.85;;
17741;SDS011;8993;51.822;-2.268;2023-05-10T18:00:51;4.55;;;0.86;;
17741;SDS011;8993;51.822;-2.268;2023-05-10T18:05:55;3.99;;;0.94;;
17741;SDS011;8993;51.822;-2.268;2023-05-10T18:10:59;4.27;;;0.97;;
17741;SDS011;8993;51.822;-2.268;2023-05-10T18:16:04;5.26;;;1.10;;
17741;SDS011;8993;51.822;-2.268;2023-05-10T18:21:09;6.38;;;1.12;;
17741;SDS011;8993;51.822;-2.268;2023-05-10T18:26:13;7.65;;;1.15;;
17741;SDS011;8993;51.822;-2.268;2023-05-10T18:31:18;5.72;;;1.09;;
17741;SDS011;8993;51.822;-2.268;2023-05-10T18:36:23;5.57;;;1.58;;
17741;SDS011;8993;51.822;-2.268;2023-05-10T18:41:28;7.87;;;1.21;;
17741;SDS011;8993;51.822;-2.268;2023-05-10T18:46:33;4.43;;;0.80;;
17741;SDS011;8993;51.822;-2.268;2023-05-10T18:51:37;4.13;;;0.89;;
17741;SDS011;8993;51.822;-2.268;2023-05-10T18:56:42;8.04;;;1.61;;
17741;SDS011;8993;51.822;-2.268;2023-05-10T19:01:47;7.39;;;1.29;;
17741;SDS011;8993;51.822;-2.268;2023-05-10T19:06:53;6.16;;;1.05;;
17741;SDS011;8993;51.822;-2.268;2023-05-10T19:12:00;6.48;;;0.97;;
17741;SDS011;8993;51.822;-2.268;2023-05-10T19:17:04;6.43;;;1.04;;
17741;SDS011;8993;51.822;-2.268;2023-05-10T19:22:09;6.82;;;1.04;;
17741;SDS011;8993;51.822;-2.268;2023-05-10T19:27:13;6.35;;;1.15;;
17741;SDS011;8993;51.822;-2.268;2023-05-10T19:32:18;7.29;;;1.03;;
17741;SDS011;8993;51.822;-2.268;2023-05-10T19:37:22;5.37;;;1.03;;
17741;SDS011;8993;51.822;-2.268;2023-05-10T19:42:26;5.93;;;0.86;;
17741;SDS011;8993;51.822;-2.268;2023-05-10T19:47:31;5.30;;;0.94;;
17741;SDS011;8993;51.822;-2.268;2023-05-10T19:52:35;6.40;;;0.97;;
17741;SDS011;8993;51.822;-2.268;2023-05-10T19:57:41;8.46;;;1.01;;
17741;SDS011;8993;51.822;-2.268;2023-05-10T20:02:45;5.67;;;0.99;;
17741;SDS011;8993;51.822;-2.268;2023-05-10T20:07:50;9.17;;;1.24;;
17741;SDS011;8993;51.822;-2.268;2023-05-10T20:12:54;8.19;;;1.36;;
17741;SDS011;8993;51.822;-2.268;2023-05-10T20:17:59;7.39;;;1.30;;
17741;SDS011;8993;51.822;-2.268;2023-05-10T20:23:04;8.55;;;1.38;;
17741;SDS011;8993;51.822;-2.268;2023-05-10T20:28:08;7.78;;;1.61;;
17741;SDS011;8993;51.822;-2.268;2023-05-10T20:33:12;10.06;;;1.83;;
17741;SDS011;8993;51.822;-2.268;2023-05-10T20:38:18;8.39;;;2.03;;
17741;SDS011;8993;51.822;-2.268;2023-05-10T20:43:22;10.83;;;2.26;;
17741;SDS011;8993;51.822;-2.268;2023-05-10T20:48:27;12.13;;;3.04;;
17741;SDS011;8993;51.822;-2.268;2023-05-10T20:53:31;11.66;;;3.05;;
17741;SDS011;8993;51.822;-2.268;2023-05-10T20:58:36;13.54;;;3.49;;
17741;SDS011;8993;51.822;-2.268;2023-05-10T21:03:40;13.54;;;3.08;;
17741;SDS011;8993;51.822;-2.268;2023-05-10T21:08:44;10.74;;;3.08;;
17741;SDS011;8993;51.822;-2.268;2023-05-10T21:13:49;11.33;;;2.83;;
17741;SDS011;8993;51.822;-2.268;2023-05-10T21:18:56;14.83;;;2.91;;
17741;SDS011;8993;51.822;-2.268;2023-05-10T21:24:03;11.09;;;2.67;;
17741;SDS011;8993;51.822;-2.268;2023-05-10T21:29:07;16.65;;;3.25;;
17741;SDS011;8993;51.822;-2.268;2023-05-10T21:34:12;17.87;;;3.72;;
17741;SDS011;8993;51.822;-2.268;2023-05-10T21:39:16;22.04;;;4.37;;
17741;SDS011;8993;51.822;-2.268;2023-05-10T21:44:21;19.15;;;4.84;;
17741;SDS011;8993;51.822;-2.268;2023-05-10T21:49:25;19.50;;;5.12;;
17741;SDS011;8993;51.822;-2.268;2023-05-10T21:54:30;22.24;;;5.45;;
17741;SDS011;8993;51.822;-2.268;2023-05-10T21:59:35;25.45;;;4.89;;
17741;SDS011;8993;51.822;-2.268;2023-05-10T22:04:39;18.59;;;3.88;;
17741;SDS011;8993;51.822;-2.268;2023-05-10T22:09:43;20.10;;;4.20;;
17741;SDS011;8993;51.822;-2.268;2023-05-10T22:14:47;18.18;;;4.06;;
17741;SDS011;8993;51.822;-2.268;2023-05-10T22:19:51;21.97;;;4.39;;
17741;SDS011;8993;51.822;-2.268;2023-05-10T22:24:56;27.06;;;4.80;;
17741;SDS011;8993;51.822;-2.268;2023-05-10T22:30:00;25.79;;;4.98;;
17741;SDS011;8993;51.822;-2.268;2023-05-10T22:35:04;30.98;;;6.60;;
17741;SDS011;8993;51.822;-2.268;2023-05-10T22:40:09;32.40;;;6.26;;
17741;SDS011;8993;51.822;-2.268;2023-05-10T22:45:13;31.08;;;6.58;;
17741;SDS011;8993;51.822;-2.268;2023-05-10T22:50:17;30.94;;;6.57;;
17741;SDS011;8993;51.822;-2.268;2023-05-10T22:55:21;28.25;;;5.91;;
17741;SDS011;8993;51.822;-2.268;2023-05-10T23:00:25;23.02;;;5.32;;
17741;SDS011;8993;51.822;-2.268;2023-05-10T23:05:29;26.62;;;5.96;;
17741;SDS011;8993;51.822;-2.268;2023-05-10T23:10:34;30.55;;;6.51;;
17741;SDS011;8993;51.822;-2.268;2023-05-10T23:15:38;31.43;;;7.10;;
17741;SDS011;8993;51.822;-2.268;2023-05-10T23:20:42;31.13;;;7.35;;
17741;SDS011;8993;51.822;-2.268;2023-05-10T23:25:46;28.28;;;7.67;;
17741;SDS011;8993;51.822;-2.268;2023-05-10T23:46:10;39.22;;;8.83;;
17741;SDS011;8993;51.822;-2.268;2023-05-10T23:51:16;27.81;;;7.46;;
17741;SDS011;8993;51.822;-2.268;2023-05-10T23:56:22;23.81;;;6.63;;
